Tuesday, January 15, 2019, 7:31 PM EST
Back to Local

KLWM, Lawrence Municipal Airport

Location: North Andover, MA, United States Lat: 42.717
Local Time: 7:31 PM EST ( 0:31 GMT) Lon: -71.133
Time Zone: US/Eastern Elev: 147 ft

Show me the last for .
Show Coded

Time T Td Feel RH Dir Speed Gust Alt SLP Vis Weather Sky Remarks
2019-01-15 18:54 27 17 23 65 290° 3 - 30.10 30.11 10 CLR 6-hr Min Temp (7pm): 27.0°F
6-hr Max Temp (7pm): 35.1°F
2019-01-15 17:54 29 18 24 63 Variable 5 - 30.10 30.10 10 CLR None
2019-01-15 16:54 30 18 25 60 310° 5 - 30.08 30.09 10 CLR None
2019-01-15 15:54 33 18 27 53 300° 7 - 30.07 30.07 10 CLR None
2019-01-15 14:54 34 18 26 51 290° 10 - 30.06 30.07 10 CLR None
2019-01-15 13:54 34 18 27 51 300° 9 - 30.05 30.06 10 CLR None
2019-01-15 12:54 34 17 28 49 310° 7 - 30.05 30.06 10 CLR 6-hr Min Temp (1pm): 19.9°F
6-hr Max Temp (1pm): 34.0°F
2019-01-15 11:54 33 14 26 44 320° 8 - 30.08 30.08 10 CLR None
2019-01-15 10:54 30 13 21 48 340° 10 - 30.10 30.11 10 CLR None
2019-01-15 09:54 26 13 17 56 320° 9 - 30.11 30.12 10 CLR None
2019-01-15 08:54 23 11 15 59 320° 7 - 30.10 30.10 10 CLR None
2019-01-15 07:54 22 9 13 56 310° 7 - 30.07 30.07 10 CLR None
2019-01-15 06:54 20 8 13 59 300° 5 - 30.07 30.07 10 CLR 6-hr Min Temp (7am): 16.0°F
6-hr Max Temp (7am): 21.0°F
2019-01-15 05:54 17 8 - 67 - Calm - 30.05 30.06 10 CLR None
2019-01-15 04:54 18 6 - 58 - Calm - 30.04 30.04 10 CLR None
2019-01-15 03:54 18 6 13 58 250° 3 - 30.04 30.05 10 CLR None
2019-01-15 02:54 18 7 - 61 - Calm - 30.06 30.06 10 CLR None
2019-01-15 01:54 19 8 - 61 - Calm - 30.06 30.06 10 CLR None
2019-01-15 00:54 21 8 16 56 300° 3 - 30.07 30.07 10 CLR 6-hr Min Temp (1am): 19.0°F
6-hr Max Temp (1am): 24.1°F
2019-01-14 23:54 21 9 - 58 - Calm - 30.08 30.08 10 CLR 24-hr Min Temp (12am): 17.1°F
24-hr Max Temp (12am): 30.9°F
2019-01-14 22:54 21 10 16 61 280° 3 - 30.10 30.10 10 CLR None
2019-01-14 21:54 22 11 - 62 - Calm - 30.11 30.11 10 CLR None
2019-01-14 20:54 22 12 - 65 - Calm - 30.11 30.12 10 CLR None
2019-01-14 19:54 23 12 - 62 - Calm - 30.11 30.12 10 CLR None

Support USWX by starting your Amazon purchase here.